sensor_id;sensor_type;location;lat;lon;timestamp;P1;durP1;ratioP1;P2;durP2;ratioP2
8572;SDS011;4324;42.012;24.872;2023-06-19T00:02:27;8.47;;;7.77;;
8572;SDS011;4324;42.012;24.872;2023-06-19T00:04:54;7.97;;;7.27;;
8572;SDS011;4324;42.012;24.872;2023-06-19T00:07:21;8.13;;;7.10;;
8572;SDS011;4324;42.012;24.872;2023-06-19T00:09:49;7.77;;;7.07;;
8572;SDS011;4324;42.012;24.872;2023-06-19T00:12:16;8.27;;;7.57;;
8572;SDS011;4324;42.012;24.872;2023-06-19T00:14:43;8.57;;;7.87;;
8572;SDS011;4324;42.012;24.872;2023-06-19T00:17:10;8.93;;;8.13;;
8572;SDS011;4324;42.012;24.872;2023-06-19T00:19:37;9.17;;;7.73;;
8572;SDS011;4324;42.012;24.872;2023-06-19T00:22:04;8.90;;;8.03;;
8572;SDS011;4324;42.012;24.872;2023-06-19T00:24:31;7.90;;;7.30;;
8572;SDS011;4324;42.012;24.872;2023-06-19T00:26:59;8.13;;;7.43;;
8572;SDS011;4324;42.012;24.872;2023-06-19T00:29:28;9.00;;;8.20;;
8572;SDS011;4324;42.012;24.872;2023-06-19T00:31:55;8.70;;;8.10;;
8572;SDS011;4324;42.012;24.872;2023-06-19T00:34:21;8.67;;;8.03;;
8572;SDS011;4324;42.012;24.872;2023-06-19T00:36:49;8.57;;;7.77;;
8572;SDS011;4324;42.012;24.872;2023-06-19T00:39:16;8.43;;;7.77;;
8572;SDS011;4324;42.012;24.872;2023-06-19T00:41:43;8.20;;;7.47;;
8572;SDS011;4324;42.012;24.872;2023-06-19T00:44:14;9.30;;;8.00;;
8572;SDS011;4324;42.012;24.872;2023-06-19T00:46:41;8.53;;;7.83;;
8572;SDS011;4324;42.012;24.872;2023-06-19T00:49:08;8.57;;;7.87;;
8572;SDS011;4324;42.012;24.872;2023-06-19T00:51:35;8.60;;;8.00;;
8572;SDS011;4324;42.012;24.872;2023-06-19T00:54:02;9.17;;;8.37;;
8572;SDS011;4324;42.012;24.872;2023-06-19T00:56:30;8.53;;;7.73;;
8572;SDS011;4324;42.012;24.872;2023-06-19T00:58:57;9.47;;;8.67;;
8572;SDS011;4324;42.012;24.872;2023-06-19T01:01:26;9.10;;;8.30;;
8572;SDS011;4324;42.012;24.872;2023-06-19T01:03:53;8.67;;;8.00;;
8572;SDS011;4324;42.012;24.872;2023-06-19T01:06:21;8.70;;;7.90;;
8572;SDS011;4324;42.012;24.872;2023-06-19T01:08:53;8.40;;;7.80;;
8572;SDS011;4324;42.012;24.872;2023-06-19T01:11:24;8.23;;;7.63;;
8572;SDS011;4324;42.012;24.872;2023-06-19T01:13:58;8.10;;;7.30;;
8572;SDS011;4324;42.012;24.872;2023-06-19T01:16:30;7.47;;;6.73;;
8572;SDS011;4324;42.012;24.872;2023-06-19T01:18:58;8.63;;;7.83;;
8572;SDS011;4324;42.012;24.872;2023-06-19T01:21:26;7.97;;;7.10;;
8572;SDS011;4324;42.012;24.872;2023-06-19T01:23:54;9.07;;;8.20;;
8572;SDS011;4324;42.012;24.872;2023-06-19T01:26:21;7.77;;;7.17;;
8572;SDS011;4324;42.012;24.872;2023-06-19T01:28:51;7.90;;;7.20;;
8572;SDS011;4324;42.012;24.872;2023-06-19T01:31:20;7.60;;;7.03;;
8572;SDS011;4324;42.012;24.872;2023-06-19T01:33:50;8.83;;;8.00;;
8572;SDS011;4324;42.012;24.872;2023-06-19T01:36:18;8.27;;;7.57;;
8572;SDS011;4324;42.012;24.872;2023-06-19T01:38:47;8.30;;;7.47;;
8572;SDS011;4324;42.012;24.872;2023-06-19T01:41:16;8.60;;;7.70;;
8572;SDS011;4324;42.012;24.872;2023-06-19T01:43:45;8.40;;;7.80;;
8572;SDS011;4324;42.012;24.872;2023-06-19T01:46:13;8.67;;;7.80;;
8572;SDS011;4324;42.012;24.872;2023-06-19T01:48:40;8.57;;;7.87;;
8572;SDS011;4324;42.012;24.872;2023-06-19T01:51:07;8.10;;;7.40;;
8572;SDS011;4324;42.012;24.872;2023-06-19T01:53:34;7.60;;;6.90;;
8572;SDS011;4324;42.012;24.872;2023-06-19T01:56:01;9.03;;;7.83;;
8572;SDS011;4324;42.012;24.872;2023-06-19T01:58:30;7.53;;;7.03;;
8572;SDS011;4324;42.012;24.872;2023-06-19T02:00:57;7.93;;;7.23;;
8572;SDS011;4324;42.012;24.872;2023-06-19T02:03:24;10.90;;;7.63;;
8572;SDS011;4324;42.012;24.872;2023-06-19T02:05:51;7.90;;;7.10;;
8572;SDS011;4324;42.012;24.872;2023-06-19T02:08:17;8.30;;;7.70;;
8572;SDS011;4324;42.012;24.872;2023-06-19T02:10:45;7.30;;;6.73;;
8572;SDS011;4324;42.012;24.872;2023-06-19T02:13:11;7.50;;;6.90;;
8572;SDS011;4324;42.012;24.872;2023-06-19T02:15:40;7.73;;;7.20;;
8572;SDS011;4324;42.012;24.872;2023-06-19T02:18:08;13.07;;;8.10;;
8572;SDS011;4324;42.012;24.872;2023-06-19T02:20:35;39.63;;;12.30;;
8572;SDS011;4324;42.012;24.872;2023-06-19T02:23:02;9.13;;;6.67;;
8572;SDS011;4324;42.012;24.872;2023-06-19T02:25:29;7.93;;;7.13;;
8572;SDS011;4324;42.012;24.872;2023-06-19T02:27:55;7.90;;;7.10;;
8572;SDS011;4324;42.012;24.872;2023-06-19T02:30:22;8.83;;;8.03;;
8572;SDS011;4324;42.012;24.872;2023-06-19T02:32:50;9.67;;;8.80;;
8572;SDS011;4324;42.012;24.872;2023-06-19T02:35:17;8.73;;;7.43;;
8572;SDS011;4324;42.012;24.872;2023-06-19T02:37:44;9.00;;;8.20;;
8572;SDS011;4324;42.012;24.872;2023-06-19T02:40:12;7.90;;;7.10;;
8572;SDS011;4324;42.012;24.872;2023-06-19T02:42:39;8.83;;;8.03;;
8572;SDS011;4324;42.012;24.872;2023-06-19T02:45:07;8.17;;;7.47;;
8572;SDS011;4324;42.012;24.872;2023-06-19T02:47:34;8.03;;;7.43;;
8572;SDS011;4324;42.012;24.872;2023-06-19T02:50:03;8.30;;;7.50;;
8572;SDS011;4324;42.012;24.872;2023-06-19T02:52:30;8.50;;;7.80;;
8572;SDS011;4324;42.012;24.872;2023-06-19T02:54:57;8.20;;;7.47;;
8572;SDS011;4324;42.012;24.872;2023-06-19T02:57:24;8.70;;;7.87;;
8572;SDS011;4324;42.012;24.872;2023-06-19T02:59:52;8.33;;;7.60;;
8572;SDS011;4324;42.012;24.872;2023-06-19T03:02:19;9.30;;;7.53;;
8572;SDS011;4324;42.012;24.872;2023-06-19T03:04:46;12.00;;;8.50;;
8572;SDS011;4324;42.012;24.872;2023-06-19T03:07:15;9.03;;;7.27;;
8572;SDS011;4324;42.012;24.872;2023-06-19T03:09:42;8.03;;;7.17;;
8572;SDS011;4324;42.012;24.872;2023-06-19T03:12:09;8.23;;;7.50;;
8572;SDS011;4324;42.012;24.872;2023-06-19T03:14:36;8.30;;;7.50;;
8572;SDS011;4324;42.012;24.872;2023-06-19T03:17:03;7.67;;;6.83;;
8572;SDS011;4324;42.012;24.872;2023-06-19T03:19:31;7.37;;;6.67;;
8572;SDS011;4324;42.012;24.872;2023-06-19T03:21:58;7.67;;;7.07;;
8572;SDS011;4324;42.012;24.872;2023-06-19T03:24:26;8.60;;;7.80;;
8572;SDS011;4324;42.012;24.872;2023-06-19T03:26:53;9.90;;;7.47;;
8572;SDS011;4324;42.012;24.872;2023-06-19T03:29:20;9.30;;;7.13;;
8572;SDS011;4324;42.012;24.872;2023-06-19T03:31:47;7.47;;;6.87;;
8572;SDS011;4324;42.012;24.872;2023-06-19T03:34:14;7.37;;;6.77;;
8572;SDS011;4324;42.012;24.872;2023-06-19T03:36:40;8.23;;;7.47;;
8572;SDS011;4324;42.012;24.872;2023-06-19T03:39:07;8.40;;;7.57;;
8572;SDS011;4324;42.012;24.872;2023-06-19T03:41:36;7.73;;;7.03;;
8572;SDS011;4324;42.012;24.872;2023-06-19T03:44:03;7.40;;;6.80;;
8572;SDS011;4324;42.012;24.872;2023-06-19T03:46:30;7.90;;;7.20;;
8572;SDS011;4324;42.012;24.872;2023-06-19T03:48:57;7.67;;;6.90;;
8572;SDS011;4324;42.012;24.872;2023-06-19T03:51:23;9.10;;;7.47;;
8572;SDS011;4324;42.012;24.872;2023-06-19T03:53:50;7.83;;;7.03;;
8572;SDS011;4324;42.012;24.872;2023-06-19T03:56:17;8.43;;;7.40;;
8572;SDS011;4324;42.012;24.872;2023-06-19T03:58:45;14.33;;;13.00;;
8572;SDS011;4324;42.012;24.872;2023-06-19T04:01:12;15.67;;;10.67;;
8572;SDS011;4324;42.012;24.872;2023-06-19T04:03:39;11.80;;;10.80;;
8572;SDS011;4324;42.012;24.872;2023-06-19T04:06:06;12.53;;;11.23;;
8572;SDS011;4324;42.012;24.872;2023-06-19T04:08:33;10.50;;;9.60;;
8572;SDS011;4324;42.012;24.872;2023-06-19T04:11:00;9.90;;;8.30;;
8572;SDS011;4324;42.012;24.872;2023-06-19T04:13:27;7.97;;;7.00;;
8572;SDS011;4324;42.012;24.872;2023-06-19T04:15:55;8.70;;;7.40;;
8572;SDS011;4324;42.012;24.872;2023-06-19T04:18:25;8.87;;;7.97;;
8572;SDS011;4324;42.012;24.872;2023-06-19T04:20:52;8.53;;;7.73;;
8572;SDS011;4324;42.012;24.872;2023-06-19T04:23:19;7.67;;;6.90;;
8572;SDS011;4324;42.012;24.872;2023-06-19T04:25:46;7.97;;;7.13;;
8572;SDS011;4324;42.012;24.872;2023-06-19T04:28:13;8.20;;;7.03;;
8572;SDS011;4324;42.012;24.872;2023-06-19T04:30:40;7.90;;;7.20;;
8572;SDS011;4324;42.012;24.872;2023-06-19T04:33:08;10.20;;;9.00;;
8572;SDS011;4324;42.012;24.872;2023-06-19T04:35:35;11.90;;;7.90;;
8572;SDS011;4324;42.012;24.872;2023-06-19T04:38:05;8.63;;;7.47;;
8572;SDS011;4324;42.012;24.872;2023-06-19T04:40:31;8.47;;;7.53;;
8572;SDS011;4324;42.012;24.872;2023-06-19T04:42:58;8.50;;;7.80;;
8572;SDS011;4324;42.012;24.872;2023-06-19T04:45:26;8.23;;;7.53;;
8572;SDS011;4324;42.012;24.872;2023-06-19T04:47:52;7.80;;;7.00;;
8572;SDS011;4324;42.012;24.872;2023-06-19T04:50:21;9.67;;;7.37;;
8572;SDS011;4324;42.012;24.872;2023-06-19T04:52:48;7.50;;;6.80;;
8572;SDS011;4324;42.012;24.872;2023-06-19T04:55:15;10.23;;;8.40;;
8572;SDS011;4324;42.012;24.872;2023-06-19T04:57:42;9.17;;;8.33;;
8572;SDS011;4324;42.012;24.872;2023-06-19T05:00:10;8.57;;;7.50;;
8572;SDS011;4324;42.012;24.872;2023-06-19T05:02:38;7.50;;;6.80;;
8572;SDS011;4324;42.012;24.872;2023-06-19T05:05:08;8.73;;;7.80;;
8572;SDS011;4324;42.012;24.872;2023-06-19T05:07:37;10.30;;;7.53;;
8572;SDS011;4324;42.012;24.872;2023-06-19T05:10:04;11.10;;;10.00;;
8572;SDS011;4324;42.012;24.872;2023-06-19T05:12:31;8.20;;;7.40;;
8572;SDS011;4324;42.012;24.872;2023-06-19T05:14:58;9.47;;;8.50;;
8572;SDS011;4324;42.012;24.872;2023-06-19T05:17:25;7.13;;;6.63;;
8572;SDS011;4324;42.012;24.872;2023-06-19T05:19:52;9.93;;;8.03;;
8572;SDS011;4324;42.012;24.872;2023-06-19T05:22:19;8.47;;;7.57;;
8572;SDS011;4324;42.012;24.872;2023-06-19T05:24:48;8.10;;;7.30;;
8572;SDS011;4324;42.012;24.872;2023-06-19T05:27:15;8.07;;;6.80;;
8572;SDS011;4324;42.012;24.872;2023-06-19T05:29:45;7.63;;;7.00;;
8572;SDS011;4324;42.012;24.872;2023-06-19T05:32:11;8.30;;;7.53;;
8572;SDS011;4324;42.012;24.872;2023-06-19T05:34:39;8.00;;;7.20;;
8572;SDS011;4324;42.012;24.872;2023-06-19T05:37:06;7.80;;;7.10;;
8572;SDS011;4324;42.012;24.872;2023-06-19T05:39:33;7.90;;;7.20;;
8572;SDS011;4324;42.012;24.872;2023-06-19T05:42:01;8.07;;;7.27;;
8572;SDS011;4324;42.012;24.872;2023-06-19T05:44:28;7.40;;;6.70;;
8572;SDS011;4324;42.012;24.872;2023-06-19T05:46:55;8.03;;;7.23;;
8572;SDS011;4324;42.012;24.872;2023-06-19T05:49:22;7.30;;;6.70;;
8572;SDS011;4324;42.012;24.872;2023-06-19T05:51:48;8.03;;;7.33;;
8572;SDS011;4324;42.012;24.872;2023-06-19T05:54:15;7.93;;;7.33;;
8572;SDS011;4324;42.012;24.872;2023-06-19T05:56:43;7.97;;;7.27;;
8572;SDS011;4324;42.012;24.872;2023-06-19T05:59:11;8.07;;;7.37;;
8572;SDS011;4324;42.012;24.872;2023-06-19T06:01:39;8.00;;;7.30;;
8572;SDS011;4324;42.012;24.872;2023-06-19T06:04:06;8.47;;;7.77;;
8572;SDS011;4324;42.012;24.872;2023-06-19T06:06:33;7.60;;;7.00;;
8572;SDS011;4324;42.012;24.872;2023-06-19T06:09:01;7.13;;;6.60;;
8572;SDS011;4324;42.012;24.872;2023-06-19T06:11:27;8.20;;;7.60;;
8572;SDS011;4324;42.012;24.872;2023-06-19T06:13:54;7.83;;;7.17;;
8572;SDS011;4324;42.012;24.872;2023-06-19T06:16:22;7.00;;;6.40;;
8572;SDS011;4324;42.012;24.872;2023-06-19T06:18:51;8.70;;;7.80;;
8572;SDS011;4324;42.012;24.872;2023-06-19T06:21:18;8.03;;;6.90;;
8572;SDS011;4324;42.012;24.872;2023-06-19T06:23:45;7.90;;;7.10;;
8572;SDS011;4324;42.012;24.872;2023-06-19T06:26:12;8.30;;;7.47;;
8572;SDS011;4324;42.012;24.872;2023-06-19T06:28:40;7.60;;;6.83;;
8572;SDS011;4324;42.012;24.872;2023-06-19T06:31:06;7.90;;;7.13;;
8572;SDS011;4324;42.012;24.872;2023-06-19T06:33:35;7.90;;;7.20;;
8572;SDS011;4324;42.012;24.872;2023-06-19T06:36:02;9.40;;;8.60;;
8572;SDS011;4324;42.012;24.872;2023-06-19T06:38:29;8.17;;;7.37;;
8572;SDS011;4324;42.012;24.872;2023-06-19T06:40:56;8.20;;;7.57;;
8572;SDS011;4324;42.012;24.872;2023-06-19T06:43:23;7.87;;;6.90;;
8572;SDS011;4324;42.012;24.872;2023-06-19T06:45:50;7.57;;;6.87;;
8572;SDS011;4324;42.012;24.872;2023-06-19T06:48:16;8.40;;;7.50;;
8572;SDS011;4324;42.012;24.872;2023-06-19T06:50:45;8.30;;;7.60;;
8572;SDS011;4324;42.012;24.872;2023-06-19T06:53:12;7.27;;;6.70;;
8572;SDS011;4324;42.012;24.872;2023-06-19T06:55:39;10.20;;;7.77;;
8572;SDS011;4324;42.012;24.872;2023-06-19T06:58:06;8.43;;;7.63;;
8572;SDS011;4324;42.012;24.872;2023-06-19T07:00:32;9.17;;;7.83;;
8572;SDS011;4324;42.012;24.872;2023-06-19T07:02:59;8.50;;;7.20;;
8572;SDS011;4324;42.012;24.872;2023-06-19T07:05:26;7.77;;;7.10;;
8572;SDS011;4324;42.012;24.872;2023-06-19T07:07:56;8.30;;;7.50;;
8572;SDS011;4324;42.012;24.872;2023-06-19T07:10:23;9.83;;;9.00;;
8572;SDS011;4324;42.012;24.872;2023-06-19T07:12:50;7.03;;;6.53;;
8572;SDS011;4324;42.012;24.872;2023-06-19T07:15:17;7.07;;;6.37;;
8572;SDS011;4324;42.012;24.872;2023-06-19T07:17:44;7.40;;;6.80;;
8572;SDS011;4324;42.012;24.872;2023-06-19T07:20:11;7.00;;;6.50;;
8572;SDS011;4324;42.012;24.872;2023-06-19T07:22:38;7.30;;;6.80;;
8572;SDS011;4324;42.012;24.872;2023-06-19T07:25:07;7.73;;;6.80;;
8572;SDS011;4324;42.012;24.872;2023-06-19T07:27:37;7.90;;;7.20;;
8572;SDS011;4324;42.012;24.872;2023-06-19T07:30:04;7.50;;;6.90;;
8572;SDS011;4324;42.012;24.872;2023-06-19T07:32:32;8.27;;;7.47;;
8572;SDS011;4324;42.012;24.872;2023-06-19T07:34:59;7.80;;;6.80;;
8572;SDS011;4324;42.012;24.872;2023-06-19T07:37:26;8.87;;;8.07;;
8572;SDS011;4324;42.012;24.872;2023-06-19T07:39:52;10.07;;;8.80;;
8572;SDS011;4324;42.012;24.872;2023-06-19T07:42:21;8.07;;;7.30;;
8572;SDS011;4324;42.012;24.872;2023-06-19T07:44:49;8.80;;;8.10;;
8572;SDS011;4324;42.012;24.872;2023-06-19T07:47:16;7.73;;;6.93;;
8572;SDS011;4324;42.012;24.872;2023-06-19T07:49:44;7.03;;;6.43;;
8572;SDS011;4324;42.012;24.872;2023-06-19T07:52:11;8.30;;;7.50;;
8572;SDS011;4324;42.012;24.872;2023-06-19T07:54:47;8.03;;;7.23;;
8572;SDS011;4324;42.012;24.872;2023-06-19T07:57:17;7.60;;;6.87;;
8572;SDS011;4324;42.012;24.872;2023-06-19T07:59:46;7.80;;;7.03;;
8572;SDS011;4324;42.012;24.872;2023-06-19T08:02:13;7.33;;;6.63;;
8572;SDS011;4324;42.012;24.872;2023-06-19T08:04:40;8.30;;;7.43;;
8572;SDS011;4324;42.012;24.872;2023-06-19T08:07:07;8.03;;;7.20;;
8572;SDS011;4324;42.012;24.872;2023-06-19T08:09:34;9.17;;;6.83;;
8572;SDS011;4324;42.012;24.872;2023-06-19T08:12:00;7.93;;;7.23;;
8572;SDS011;4324;42.012;24.872;2023-06-19T08:14:28;8.37;;;7.67;;
8572;SDS011;4324;42.012;24.872;2023-06-19T08:16:56;7.47;;;6.87;;
8572;SDS011;4324;42.012;24.872;2023-06-19T08:19:23;7.13;;;6.57;;
8572;SDS011;4324;42.012;24.872;2023-06-19T08:21:49;7.07;;;6.57;;
8572;SDS011;4324;42.012;24.872;2023-06-19T08:24:17;7.77;;;7.17;;
8572;SDS011;4324;42.012;24.872;2023-06-19T08:26:44;7.87;;;7.07;;
8572;SDS011;4324;42.012;24.872;2023-06-19T08:29:11;7.03;;;6.03;;
8572;SDS011;4324;42.012;24.872;2023-06-19T08:31:37;7.00;;;6.50;;
8572;SDS011;4324;42.012;24.872;2023-06-19T08:34:05;7.50;;;6.90;;
8572;SDS011;4324;42.012;24.872;2023-06-19T08:36:34;7.70;;;7.00;;
8572;SDS011;4324;42.012;24.872;2023-06-19T08:39:01;8.23;;;7.07;;
8572;SDS011;4324;42.012;24.872;2023-06-19T08:41:28;7.27;;;6.77;;
8572;SDS011;4324;42.012;24.872;2023-06-19T08:43:55;7.23;;;6.60;;
8572;SDS011;4324;42.012;24.872;2023-06-19T08:46:23;7.33;;;6.83;;
8572;SDS011;4324;42.012;24.872;2023-06-19T08:48:50;7.40;;;6.80;;
8572;SDS011;4324;42.012;24.872;2023-06-19T08:51:18;7.13;;;6.47;;
8572;SDS011;4324;42.012;24.872;2023-06-19T08:53:45;9.17;;;7.17;;
8572;SDS011;4324;42.012;24.872;2023-06-19T08:56:15;7.50;;;6.90;;
8572;SDS011;4324;42.012;24.872;2023-06-19T08:58:42;6.67;;;6.17;;
8572;SDS011;4324;42.012;24.872;2023-06-19T09:01:09;7.63;;;7.03;;
8572;SDS011;4324;42.012;24.872;2023-06-19T09:03:38;7.97;;;7.27;;
8572;SDS011;4324;42.012;24.872;2023-06-19T09:06:06;9.33;;;7.00;;
8572;SDS011;4324;42.012;24.872;2023-06-19T09:08:34;8.33;;;7.70;;
8572;SDS011;4324;42.012;24.872;2023-06-19T09:11:03;7.87;;;7.27;;
8572;SDS011;4324;42.012;24.872;2023-06-19T09:13:31;7.53;;;6.93;;
8572;SDS011;4324;42.012;24.872;2023-06-19T09:15:59;7.83;;;7.23;;
8572;SDS011;4324;42.012;24.872;2023-06-19T09:18:28;7.13;;;6.63;;
8572;SDS011;4324;42.012;24.872;2023-06-19T09:20:56;6.83;;;6.40;;
8572;SDS011;4324;42.012;24.872;2023-06-19T09:23:23;7.30;;;6.60;;
8572;SDS011;4324;42.012;24.872;2023-06-19T09:25:52;7.67;;;6.90;;
8572;SDS011;4324;42.012;24.872;2023-06-19T09:28:21;7.67;;;7.07;;
8572;SDS011;4324;42.012;24.872;2023-06-19T09:30:53;7.40;;;6.80;;
8572;SDS011;4324;42.012;24.872;2023-06-19T09:33:21;7.90;;;7.37;;
8572;SDS011;4324;42.012;24.872;2023-06-19T09:35:49;7.97;;;7.37;;
8572;SDS011;4324;42.012;24.872;2023-06-19T09:38:17;8.20;;;7.50;;
8572;SDS011;4324;42.012;24.872;2023-06-19T09:40:46;7.33;;;6.73;;
8572;SDS011;4324;42.012;24.872;2023-06-19T09:43:18;8.00;;;7.40;;
8572;SDS011;4324;42.012;24.872;2023-06-19T09:45:47;7.60;;;6.90;;
8572;SDS011;4324;42.012;24.872;2023-06-19T09:48:17;7.37;;;6.77;;
8572;SDS011;4324;42.012;24.872;2023-06-19T09:50:46;8.07;;;7.40;;
8572;SDS011;4324;42.012;24.872;2023-06-19T09:53:17;7.43;;;6.83;;
8572;SDS011;4324;42.012;24.872;2023-06-19T09:55:45;7.73;;;7.07;;
8572;SDS011;4324;42.012;24.872;2023-06-19T09:58:13;9.53;;;6.70;;
8572;SDS011;4324;42.012;24.872;2023-06-19T10:00:43;8.63;;;7.83;;
8572;SDS011;4324;42.012;24.872;2023-06-19T10:03:11;7.43;;;6.72;;
8572;SDS011;4324;42.012;24.872;2023-06-19T10:05:39;7.57;;;6.87;;
8572;SDS011;4324;42.012;24.872;2023-06-19T10:08:06;6.73;;;6.17;;
8572;SDS011;4324;42.012;24.872;2023-06-19T10:10:33;7.28;;;6.72;;
8572;SDS011;4324;42.012;24.872;2023-06-19T10:13:11;7.87;;;7.17;;
8572;SDS011;4324;42.012;24.872;2023-06-19T10:15:40;7.47;;;6.87;;
8572;SDS011;4324;42.012;24.872;2023-06-19T10:18:12;7.20;;;6.60;;
8572;SDS011;4324;42.012;24.872;2023-06-19T10:20:41;7.27;;;6.57;;
8572;SDS011;4324;42.012;24.872;2023-06-19T10:23:10;8.97;;;7.40;;
8572;SDS011;4324;42.012;24.872;2023-06-19T10:25:39;6.90;;;6.30;;
8572;SDS011;4324;42.012;24.872;2023-06-19T10:28:15;6.95;;;6.32;;
8572;SDS011;4324;42.012;24.872;2023-06-19T10:30:43;7.53;;;6.35;;
8572;SDS011;4324;42.012;24.872;2023-06-19T10:33:12;6.87;;;6.37;;
8572;SDS011;4324;42.012;24.872;2023-06-19T10:35:39;7.37;;;6.47;;
8572;SDS011;4324;42.012;24.872;2023-06-19T10:38:06;8.48;;;7.13;;
8572;SDS011;4324;42.012;24.872;2023-06-19T10:40:35;7.97;;;7.33;;
8572;SDS011;4324;42.012;24.872;2023-06-19T10:43:03;6.83;;;6.13;;
8572;SDS011;4324;42.012;24.872;2023-06-19T10:45:30;7.23;;;6.70;;
8572;SDS011;4324;42.012;24.872;2023-06-19T10:47:57;7.43;;;6.83;;
8572;SDS011;4324;42.012;24.872;2023-06-19T10:50:28;6.83;;;6.10;;
8572;SDS011;4324;42.012;24.872;2023-06-19T10:52:59;7.20;;;6.60;;
8572;SDS011;4324;42.012;24.872;2023-06-19T10:55:26;6.70;;;5.70;;
8572;SDS011;4324;42.012;24.872;2023-06-19T10:57:53;7.27;;;6.67;;
8572;SDS011;4324;42.012;24.872;2023-06-19T11:00:23;6.90;;;6.40;;
8572;SDS011;4324;42.012;24.872;2023-06-19T11:02:51;7.85;;;7.25;;
8572;SDS011;4324;42.012;24.872;2023-06-19T11:05:19;7.47;;;6.87;;
8572;SDS011;4324;42.012;24.872;2023-06-19T11:07:51;7.10;;;6.47;;
8572;SDS011;4324;42.012;24.872;2023-06-19T11:10:20;7.30;;;6.60;;
8572;SDS011;4324;42.012;24.872;2023-06-19T11:12:48;7.57;;;6.87;;
8572;SDS011;4324;42.012;24.872;2023-06-19T11:15:15;6.90;;;6.37;;
8572;SDS011;4324;42.012;24.872;2023-06-19T11:17:42;6.43;;;5.93;;
8572;SDS011;4324;42.012;24.872;2023-06-19T11:20:10;6.05;;;5.55;;
8572;SDS011;4324;42.012;24.872;2023-06-19T11:22:38;8.07;;;6.50;;
8572;SDS011;4324;42.012;24.872;2023-06-19T11:25:09;7.22;;;6.57;;
8572;SDS011;4324;42.012;24.872;2023-06-19T11:27:37;7.00;;;6.30;;
8572;SDS011;4324;42.012;24.872;2023-06-19T11:30:05;6.43;;;5.53;;
8572;SDS011;4324;42.012;24.872;2023-06-19T11:32:35;7.00;;;6.30;;
8572;SDS011;4324;42.012;24.872;2023-06-19T11:35:07;7.07;;;6.43;;
8572;SDS011;4324;42.012;24.872;2023-06-19T11:37:36;6.75;;;6.15;;
8572;SDS011;4324;42.012;24.872;2023-06-19T11:40:06;7.90;;;7.30;;
8572;SDS011;4324;42.012;24.872;2023-06-19T11:42:47;8.63;;;7.93;;
8572;SDS011;4324;42.012;24.872;2023-06-19T11:45:15;7.18;;;6.57;;
8572;SDS011;4324;42.012;24.872;2023-06-19T11:47:43;8.32;;;6.22;;
8572;SDS011;4324;42.012;24.872;2023-06-19T11:50:10;6.82;;;6.22;;
8572;SDS011;4324;42.012;24.872;2023-06-19T11:52:38;6.27;;;5.67;;
8572;SDS011;4324;42.012;24.872;2023-06-19T11:55:05;6.50;;;6.00;;
8572;SDS011;4324;42.012;24.872;2023-06-19T11:57:33;7.05;;;6.40;;
8572;SDS011;4324;42.012;24.872;2023-06-19T12:00:01;7.28;;;6.68;;
8572;SDS011;4324;42.012;24.872;2023-06-19T12:02:32;5.50;;;5.00;;
8572;SDS011;4324;42.012;24.872;2023-06-19T12:04:59;8.23;;;6.38;;
8572;SDS011;4324;42.012;24.872;2023-06-19T12:07:26;6.43;;;5.53;;
8572;SDS011;4324;42.012;24.872;2023-06-19T12:09:53;5.78;;;5.20;;
8572;SDS011;4324;42.012;24.872;2023-06-19T12:12:20;6.40;;;5.90;;
8572;SDS011;4324;42.012;24.872;2023-06-19T12:14:47;6.55;;;5.95;;
8572;SDS011;4324;42.012;24.872;2023-06-19T12:17:15;7.05;;;6.35;;
8572;SDS011;4324;42.012;24.872;2023-06-19T12:19:42;6.55;;;6.03;;
8572;SDS011;4324;42.012;24.872;2023-06-19T12:22:09;8.98;;;8.18;;
8572;SDS011;4324;42.012;24.872;2023-06-19T12:24:35;9.55;;;5.82;;
8572;SDS011;4324;42.012;24.872;2023-06-19T12:27:02;7.03;;;6.40;;
8572;SDS011;4324;42.012;24.872;2023-06-19T12:29:30;7.75;;;7.10;;
8572;SDS011;4324;42.012;24.872;2023-06-19T12:31:59;6.25;;;5.68;;
8572;SDS011;4324;42.012;24.872;2023-06-19T12:34:29;7.47;;;6.28;;
8572;SDS011;4324;42.012;24.872;2023-06-19T12:36:56;7.00;;;6.30;;
8572;SDS011;4324;42.012;24.872;2023-06-19T12:39:23;9.27;;;6.35;;
8572;SDS011;4324;42.012;24.872;2023-06-19T12:41:50;6.68;;;6.07;;
8572;SDS011;4324;42.012;24.872;2023-06-19T12:44:17;7.78;;;6.97;;
8572;SDS011;4324;42.012;24.872;2023-06-19T12:46:44;8.55;;;6.78;;
8572;SDS011;4324;42.012;24.872;2023-06-19T12:49:11;7.63;;;6.85;;
8572;SDS011;4324;42.012;24.872;2023-06-19T12:51:39;7.50;;;6.80;;
8572;SDS011;4324;42.012;24.872;2023-06-19T12:54:06;7.32;;;6.63;;
8572;SDS011;4324;42.012;24.872;2023-06-19T12:56:33;7.35;;;6.80;;
8572;SDS011;4324;42.012;24.872;2023-06-19T12:59:00;6.53;;;5.93;;
8572;SDS011;4324;42.012;24.872;2023-06-19T13:01:27;7.03;;;6.40;;
8572;SDS011;4324;42.012;24.872;2023-06-19T13:03:54;5.90;;;5.30;;
8572;SDS011;4324;42.012;24.872;2023-06-19T13:06:20;6.65;;;6.05;;
8572;SDS011;4324;42.012;24.872;2023-06-19T13:08:49;6.32;;;5.82;;
8572;SDS011;4324;42.012;24.872;2023-06-19T13:11:16;5.97;;;5.43;;
8572;SDS011;4324;42.012;24.872;2023-06-19T13:13:43;6.40;;;5.90;;
8572;SDS011;4324;42.012;24.872;2023-06-19T13:16:09;5.80;;;5.40;;
8572;SDS011;4324;42.012;24.872;2023-06-19T13:18:36;5.78;;;5.25;;
8572;SDS011;4324;42.012;24.872;2023-06-19T13:21:03;5.93;;;5.43;;
8572;SDS011;4324;42.012;24.872;2023-06-19T13:23:30;5.90;;;5.43;;
8572;SDS011;4324;42.012;24.872;2023-06-19T13:25:58;5.82;;;5.30;;
8572;SDS011;4324;42.012;24.872;2023-06-19T13:28:25;5.90;;;5.38;;
8572;SDS011;4324;42.012;24.872;2023-06-19T13:30:52;5.75;;;5.10;;
8572;SDS011;4324;42.012;24.872;2023-06-19T13:33:19;5.45;;;5.05;;
8572;SDS011;4324;42.012;24.872;2023-06-19T13:35:46;5.60;;;5.13;;
8572;SDS011;4324;42.012;24.872;2023-06-19T13:38:13;5.93;;;5.28;;
8572;SDS011;4324;42.012;24.872;2023-06-19T13:40:41;5.20;;;4.80;;
8572;SDS011;4324;42.012;24.872;2023-06-19T13:43:09;5.43;;;4.93;;
8572;SDS011;4324;42.012;24.872;2023-06-19T13:45:36;5.05;;;4.65;;
8572;SDS011;4324;42.012;24.872;2023-06-19T13:48:04;6.65;;;6.15;;
8572;SDS011;4324;42.012;24.872;2023-06-19T13:50:31;5.20;;;4.80;;
8572;SDS011;4324;42.012;24.872;2023-06-19T13:52:58;5.65;;;5.25;;
8572;SDS011;4324;42.012;24.872;2023-06-19T13:55:25;5.95;;;5.28;;
8572;SDS011;4324;42.012;24.872;2023-06-19T13:57:52;6.18;;;5.57;;
8572;SDS011;4324;42.012;24.872;2023-06-19T14:00:20;5.10;;;4.60;;
8572;SDS011;4324;42.012;24.872;2023-06-19T14:02:48;5.07;;;4.68;;
8572;SDS011;4324;42.012;24.872;2023-06-19T14:05:16;6.00;;;5.30;;
8572;SDS011;4324;42.012;24.872;2023-06-19T14:07:46;5.10;;;4.65;;
8572;SDS011;4324;42.012;24.872;2023-06-19T14:10:13;7.00;;;5.40;;
8572;SDS011;4324;42.012;24.872;2023-06-19T14:12:40;6.30;;;5.38;;
8572;SDS011;4324;42.012;24.872;2023-06-19T14:15:07;5.50;;;5.00;;
8572;SDS011;4324;42.012;24.872;2023-06-19T14:17:36;5.80;;;5.10;;
8572;SDS011;4324;42.012;24.872;2023-06-19T14:20:03;12.45;;;6.53;;
8572;SDS011;4324;42.012;24.872;2023-06-19T14:22:30;6.47;;;4.78;;
8572;SDS011;4324;42.012;24.872;2023-06-19T14:24:57;5.53;;;4.90;;
8572;SDS011;4324;42.012;24.872;2023-06-19T14:27:27;5.20;;;4.70;;
8572;SDS011;4324;42.012;24.872;2023-06-19T14:29:54;6.60;;;5.57;;
8572;SDS011;4324;42.012;24.872;2023-06-19T14:32:21;5.25;;;4.75;;
8572;SDS011;4324;42.012;24.872;2023-06-19T14:34:49;6.72;;;5.97;;
8572;SDS011;4324;42.012;24.872;2023-06-19T14:37:16;6.22;;;5.72;;
8572;SDS011;4324;42.012;24.872;2023-06-19T14:39:43;7.13;;;6.60;;
8572;SDS011;4324;42.012;24.872;2023-06-19T14:42:10;6.95;;;6.45;;
8572;SDS011;4324;42.012;24.872;2023-06-19T14:44:37;7.10;;;6.50;;
8572;SDS011;4324;42.012;24.872;2023-06-19T14:47:05;6.80;;;6.20;;
8572;SDS011;4324;42.012;24.872;2023-06-19T14:49:32;6.82;;;6.28;;
8572;SDS011;4324;42.012;24.872;2023-06-19T14:52:00;8.32;;;6.75;;
8572;SDS011;4324;42.012;24.872;2023-06-19T14:54:27;7.38;;;6.68;;
8572;SDS011;4324;42.012;24.872;2023-06-19T14:56:54;7.78;;;7.20;;
8572;SDS011;4324;42.012;24.872;2023-06-19T14:59:21;7.72;;;6.97;;
8572;SDS011;4324;42.012;24.872;2023-06-19T15:01:48;7.05;;;6.55;;
8572;SDS011;4324;42.012;24.872;2023-06-19T15:04:15;9.38;;;7.57;;